sensor_id;sensor_type;location;lat;lon;timestamp;P1;durP1;ratioP1;P2;durP2;ratioP2
80313;SDS011;69628;47.516;18.828;2023-06-10T00:00:25;6.03;;;3.70;;
80313;SDS011;69628;47.516;18.828;2023-06-10T00:01:26;6.72;;;3.85;;
80313;SDS011;69628;47.516;18.828;2023-06-10T00:02:27;5.47;;;3.40;;
80313;SDS011;69628;47.516;18.828;2023-06-10T00:03:28;4.82;;;3.20;;
80313;SDS011;69628;47.516;18.828;2023-06-10T00:04:28;5.93;;;3.47;;
80313;SDS011;69628;47.516;18.828;2023-06-10T00:05:28;8.15;;;4.10;;
80313;SDS011;69628;47.516;18.828;2023-06-10T00:06:32;5.53;;;3.25;;
80313;SDS011;69628;47.516;18.828;2023-06-10T00:07:36;11.35;;;4.38;;
80313;SDS011;69628;47.516;18.828;2023-06-10T00:08:41;7.28;;;3.53;;
80313;SDS011;69628;47.516;18.828;2023-06-10T00:09:42;5.50;;;3.67;;
80313;SDS011;69628;47.516;18.828;2023-06-10T00:10:42;8.27;;;4.05;;
80313;SDS011;69628;47.516;18.828;2023-06-10T00:11:42;7.15;;;4.00;;
80313;SDS011;69628;47.516;18.828;2023-06-10T00:12:43;6.63;;;3.50;;
80313;SDS011;69628;47.516;18.828;2023-06-10T00:13:43;6.15;;;3.75;;
80313;SDS011;69628;47.516;18.828;2023-06-10T00:14:44;4.68;;;3.28;;
80313;SDS011;69628;47.516;18.828;2023-06-10T00:15:44;5.60;;;3.58;;
80313;SDS011;69628;47.516;18.828;2023-06-10T00:16:45;4.57;;;3.22;;
80313;SDS011;69628;47.516;18.828;2023-06-10T00:17:46;8.75;;;4.15;;
80313;SDS011;69628;47.516;18.828;2023-06-10T00:18:46;5.65;;;3.88;;
80313;SDS011;69628;47.516;18.828;2023-06-10T00:19:47;6.05;;;3.42;;
80313;SDS011;69628;47.516;18.828;2023-06-10T00:20:47;7.07;;;3.05;;
80313;SDS011;69628;47.516;18.828;2023-06-10T00:21:52;5.32;;;3.47;;
80313;SDS011;69628;47.516;18.828;2023-06-10T00:22:53;6.40;;;3.28;;
80313;SDS011;69628;47.516;18.828;2023-06-10T00:23:54;6.75;;;3.35;;
80313;SDS011;69628;47.516;18.828;2023-06-10T00:24:55;3.83;;;2.60;;
80313;SDS011;69628;47.516;18.828;2023-06-10T00:25:59;12.07;;;3.40;;
80313;SDS011;69628;47.516;18.828;2023-06-10T00:26:59;6.28;;;2.97;;
80313;SDS011;69628;47.516;18.828;2023-06-10T00:28:00;10.43;;;3.15;;
80313;SDS011;69628;47.516;18.828;2023-06-10T00:29:00;5.78;;;3.20;;
80313;SDS011;69628;47.516;18.828;2023-06-10T00:30:02;6.15;;;3.15;;
80313;SDS011;69628;47.516;18.828;2023-06-10T00:31:04;4.72;;;3.00;;
80313;SDS011;69628;47.516;18.828;2023-06-10T00:32:05;7.78;;;2.97;;
80313;SDS011;69628;47.516;18.828;2023-06-10T00:33:05;4.65;;;3.05;;
80313;SDS011;69628;47.516;18.828;2023-06-10T00:34:06;8.43;;;2.90;;
80313;SDS011;69628;47.516;18.828;2023-06-10T00:35:07;3.97;;;2.42;;
80313;SDS011;69628;47.516;18.828;2023-06-10T00:36:08;4.38;;;2.67;;
80313;SDS011;69628;47.516;18.828;2023-06-10T00:37:08;5.60;;;3.03;;
80313;SDS011;69628;47.516;18.828;2023-06-10T00:38:08;4.13;;;2.75;;
80313;SDS011;69628;47.516;18.828;2023-06-10T00:39:09;7.40;;;3.15;;
80313;SDS011;69628;47.516;18.828;2023-06-10T00:40:09;4.60;;;3.00;;
80313;SDS011;69628;47.516;18.828;2023-06-10T00:41:10;5.05;;;2.90;;
80313;SDS011;69628;47.516;18.828;2023-06-10T00:42:11;4.07;;;2.80;;
80313;SDS011;69628;47.516;18.828;2023-06-10T00:43:11;10.07;;;3.08;;
80313;SDS011;69628;47.516;18.828;2023-06-10T00:44:12;4.00;;;2.97;;
80313;SDS011;69628;47.516;18.828;2023-06-10T00:45:12;3.50;;;2.70;;
80313;SDS011;69628;47.516;18.828;2023-06-10T00:46:13;3.58;;;2.53;;
80313;SDS011;69628;47.516;18.828;2023-06-10T00:47:13;3.63;;;2.28;;
80313;SDS011;69628;47.516;18.828;2023-06-10T00:48:14;5.40;;;2.80;;
80313;SDS011;69628;47.516;18.828;2023-06-10T00:49:14;5.07;;;2.63;;
80313;SDS011;69628;47.516;18.828;2023-06-10T00:50:15;5.25;;;2.80;;
80313;SDS011;69628;47.516;18.828;2023-06-10T00:51:16;7.95;;;2.53;;
80313;SDS011;69628;47.516;18.828;2023-06-10T00:52:17;3.65;;;2.42;;
80313;SDS011;69628;47.516;18.828;2023-06-10T00:53:19;4.18;;;2.95;;
80313;SDS011;69628;47.516;18.828;2023-06-10T00:54:21;6.53;;;3.00;;
80313;SDS011;69628;47.516;18.828;2023-06-10T00:55:22;7.53;;;3.13;;
80313;SDS011;69628;47.516;18.828;2023-06-10T00:56:23;8.60;;;2.80;;
80313;SDS011;69628;47.516;18.828;2023-06-10T00:57:23;4.03;;;2.70;;
80313;SDS011;69628;47.516;18.828;2023-06-10T00:58:25;3.83;;;2.58;;
80313;SDS011;69628;47.516;18.828;2023-06-10T00:59:27;4.70;;;2.50;;
80313;SDS011;69628;47.516;18.828;2023-06-10T01:00:29;5.82;;;2.53;;
80313;SDS011;69628;47.516;18.828;2023-06-10T01:01:29;6.18;;;2.33;;
80313;SDS011;69628;47.516;18.828;2023-06-10T01:02:30;6.80;;;2.75;;
80313;SDS011;69628;47.516;18.828;2023-06-10T01:03:30;4.22;;;2.75;;
80313;SDS011;69628;47.516;18.828;2023-06-10T01:04:32;5.13;;;2.67;;
80313;SDS011;69628;47.516;18.828;2023-06-10T01:05:33;3.45;;;2.50;;
80313;SDS011;69628;47.516;18.828;2023-06-10T01:08:10;3.75;;;2.53;;
80313;SDS011;69628;47.516;18.828;2023-06-10T01:09:32;8.15;;;2.70;;
80313;SDS011;69628;47.516;18.828;2023-06-10T01:11:49;4.18;;;2.78;;
80313;SDS011;69628;47.516;18.828;2023-06-10T01:12:58;4.78;;;2.83;;
80313;SDS011;69628;47.516;18.828;2023-06-10T01:14:02;5.50;;;3.17;;
80313;SDS011;69628;47.516;18.828;2023-06-10T01:15:03;3.13;;;2.50;;
80313;SDS011;69628;47.516;18.828;2023-06-10T01:16:04;4.47;;;2.58;;
80313;SDS011;69628;47.516;18.828;2023-06-10T01:17:06;3.22;;;2.40;;
80313;SDS011;69628;47.516;18.828;2023-06-10T01:18:07;6.38;;;2.88;;
80313;SDS011;69628;47.516;18.828;2023-06-10T01:19:14;5.35;;;2.60;;
80313;SDS011;69628;47.516;18.828;2023-06-10T01:20:17;4.10;;;2.65;;
80313;SDS011;69628;47.516;18.828;2023-06-10T01:21:21;9.00;;;2.83;;
80313;SDS011;69628;47.516;18.828;2023-06-10T01:22:25;5.28;;;2.85;;
80313;SDS011;69628;47.516;18.828;2023-06-10T01:23:28;6.18;;;2.42;;
80313;SDS011;69628;47.516;18.828;2023-06-10T01:24:28;4.55;;;2.75;;
80313;SDS011;69628;47.516;18.828;2023-06-10T01:25:32;6.68;;;2.38;;
80313;SDS011;69628;47.516;18.828;2023-06-10T01:26:36;7.13;;;2.40;;
80313;SDS011;69628;47.516;18.828;2023-06-10T01:27:37;4.60;;;2.78;;
80313;SDS011;69628;47.516;18.828;2023-06-10T01:29:46;3.92;;;2.67;;
80313;SDS011;69628;47.516;18.828;2023-06-10T01:33:22;4.65;;;2.67;;
80313;SDS011;69628;47.516;18.828;2023-06-10T01:34:27;5.57;;;2.65;;
80313;SDS011;69628;47.516;18.828;2023-06-10T01:35:28;4.60;;;2.88;;
80313;SDS011;69628;47.516;18.828;2023-06-10T01:36:29;6.07;;;2.58;;
80313;SDS011;69628;47.516;18.828;2023-06-10T01:37:31;3.50;;;2.42;;
80313;SDS011;69628;47.516;18.828;2023-06-10T01:38:33;3.65;;;2.35;;
80313;SDS011;69628;47.516;18.828;2023-06-10T01:39:37;3.97;;;2.58;;
80313;SDS011;69628;47.516;18.828;2023-06-10T01:40:38;3.08;;;2.42;;
80313;SDS011;69628;47.516;18.828;2023-06-10T01:41:39;6.00;;;2.40;;
80313;SDS011;69628;47.516;18.828;2023-06-10T01:42:40;5.45;;;2.70;;
80313;SDS011;69628;47.516;18.828;2023-06-10T01:43:42;3.70;;;2.47;;
80313;SDS011;69628;47.516;18.828;2023-06-10T01:44:43;3.60;;;2.38;;
80313;SDS011;69628;47.516;18.828;2023-06-10T01:45:44;3.67;;;2.38;;
80313;SDS011;69628;47.516;18.828;2023-06-10T01:46:44;5.55;;;2.70;;
80313;SDS011;69628;47.516;18.828;2023-06-10T01:47:44;7.45;;;2.67;;
80313;SDS011;69628;47.516;18.828;2023-06-10T01:48:45;4.20;;;2.50;;
80313;SDS011;69628;47.516;18.828;2023-06-10T01:49:45;5.20;;;2.78;;
80313;SDS011;69628;47.516;18.828;2023-06-10T01:50:45;4.55;;;2.35;;
80313;SDS011;69628;47.516;18.828;2023-06-10T01:51:46;3.35;;;2.15;;
80313;SDS011;69628;47.516;18.828;2023-06-10T01:52:46;5.90;;;3.05;;
80313;SDS011;69628;47.516;18.828;2023-06-10T01:53:47;5.03;;;2.58;;
80313;SDS011;69628;47.516;18.828;2023-06-10T01:54:47;4.45;;;2.30;;
80313;SDS011;69628;47.516;18.828;2023-06-10T01:55:47;3.22;;;2.40;;
80313;SDS011;69628;47.516;18.828;2023-06-10T01:56:48;4.93;;;2.60;;
80313;SDS011;69628;47.516;18.828;2023-06-10T01:57:48;5.35;;;2.83;;
80313;SDS011;69628;47.516;18.828;2023-06-10T01:58:49;6.50;;;3.30;;
80313;SDS011;69628;47.516;18.828;2023-06-10T01:59:49;5.10;;;2.50;;
80313;SDS011;69628;47.516;18.828;2023-06-10T02:00:50;3.20;;;2.33;;
80313;SDS011;69628;47.516;18.828;2023-06-10T02:01:50;4.25;;;2.67;;
80313;SDS011;69628;47.516;18.828;2023-06-10T02:02:50;6.32;;;2.72;;
80313;SDS011;69628;47.516;18.828;2023-06-10T02:03:51;3.13;;;2.35;;
80313;SDS011;69628;47.516;18.828;2023-06-10T02:04:51;5.75;;;2.50;;
80313;SDS011;69628;47.516;18.828;2023-06-10T02:05:52;4.50;;;2.88;;
80313;SDS011;69628;47.516;18.828;2023-06-10T02:06:52;6.50;;;2.90;;
80313;SDS011;69628;47.516;18.828;2023-06-10T02:07:53;3.90;;;2.67;;
80313;SDS011;69628;47.516;18.828;2023-06-10T02:08:53;5.20;;;2.75;;
80313;SDS011;69628;47.516;18.828;2023-06-10T02:09:54;4.82;;;2.58;;
80313;SDS011;69628;47.516;18.828;2023-06-10T02:10:54;6.88;;;2.45;;
80313;SDS011;69628;47.516;18.828;2023-06-10T02:11:55;9.50;;;3.05;;
80313;SDS011;69628;47.516;18.828;2023-06-10T02:12:55;4.95;;;3.35;;
80313;SDS011;69628;47.516;18.828;2023-06-10T02:13:55;3.25;;;2.40;;
80313;SDS011;69628;47.516;18.828;2023-06-10T02:14:56;5.18;;;2.60;;
80313;SDS011;69628;47.516;18.828;2023-06-10T02:15:56;3.95;;;2.72;;
80313;SDS011;69628;47.516;18.828;2023-06-10T02:16:57;5.90;;;2.67;;
80313;SDS011;69628;47.516;18.828;2023-06-10T02:17:57;3.13;;;2.38;;
80313;SDS011;69628;47.516;18.828;2023-06-10T02:18:58;5.25;;;2.67;;
80313;SDS011;69628;47.516;18.828;2023-06-10T02:19:58;3.63;;;2.67;;
80313;SDS011;69628;47.516;18.828;2023-06-10T02:20:59;2.75;;;2.22;;
80313;SDS011;69628;47.516;18.828;2023-06-10T02:22:00;6.43;;;2.95;;
80313;SDS011;69628;47.516;18.828;2023-06-10T02:23:00;4.40;;;2.45;;
80313;SDS011;69628;47.516;18.828;2023-06-10T02:24:01;3.53;;;2.33;;
80313;SDS011;69628;47.516;18.828;2023-06-10T02:25:01;5.85;;;2.38;;
80313;SDS011;69628;47.516;18.828;2023-06-10T02:26:01;3.60;;;2.40;;
80313;SDS011;69628;47.516;18.828;2023-06-10T02:27:02;3.10;;;2.50;;
80313;SDS011;69628;47.516;18.828;2023-06-10T02:28:03;5.82;;;2.47;;
80313;SDS011;69628;47.516;18.828;2023-06-10T02:29:04;2.50;;;1.95;;
80313;SDS011;69628;47.516;18.828;2023-06-10T02:30:05;4.05;;;2.60;;
80313;SDS011;69628;47.516;18.828;2023-06-10T02:31:06;5.57;;;2.47;;
80313;SDS011;69628;47.516;18.828;2023-06-10T02:32:07;6.15;;;2.25;;
80313;SDS011;69628;47.516;18.828;2023-06-10T02:33:08;3.50;;;2.67;;
80313;SDS011;69628;47.516;18.828;2023-06-10T02:34:11;8.48;;;2.92;;
80313;SDS011;69628;47.516;18.828;2023-06-10T02:35:11;3.75;;;2.80;;
80313;SDS011;69628;47.516;18.828;2023-06-10T02:36:12;3.70;;;2.58;;
80313;SDS011;69628;47.516;18.828;2023-06-10T02:37:13;3.70;;;2.67;;
80313;SDS011;69628;47.516;18.828;2023-06-10T02:38:13;3.40;;;2.50;;
80313;SDS011;69628;47.516;18.828;2023-06-10T02:39:14;2.97;;;2.33;;
80313;SDS011;69628;47.516;18.828;2023-06-10T02:40:14;2.90;;;2.17;;
80313;SDS011;69628;47.516;18.828;2023-06-10T02:41:14;7.50;;;2.90;;
80313;SDS011;69628;47.516;18.828;2023-06-10T02:42:15;9.32;;;2.70;;
80313;SDS011;69628;47.516;18.828;2023-06-10T02:43:15;9.88;;;2.65;;
80313;SDS011;69628;47.516;18.828;2023-06-10T02:44:16;9.57;;;3.00;;
80313;SDS011;69628;47.516;18.828;2023-06-10T02:45:17;3.88;;;2.53;;
80313;SDS011;69628;47.516;18.828;2023-06-10T02:46:18;4.75;;;2.63;;
80313;SDS011;69628;47.516;18.828;2023-06-10T02:47:18;9.85;;;2.80;;
80313;SDS011;69628;47.516;18.828;2023-06-10T02:48:19;4.03;;;2.63;;
80313;SDS011;69628;47.516;18.828;2023-06-10T02:49:19;4.15;;;2.67;;
80313;SDS011;69628;47.516;18.828;2023-06-10T02:50:19;3.95;;;2.63;;
80313;SDS011;69628;47.516;18.828;2023-06-10T02:51:20;7.03;;;3.47;;
80313;SDS011;69628;47.516;18.828;2023-06-10T02:52:21;12.77;;;2.60;;
80313;SDS011;69628;47.516;18.828;2023-06-10T02:53:21;5.03;;;2.50;;
80313;SDS011;69628;47.516;18.828;2023-06-10T02:54:24;3.63;;;2.53;;
80313;SDS011;69628;47.516;18.828;2023-06-10T02:55:25;3.60;;;2.33;;
80313;SDS011;69628;47.516;18.828;2023-06-10T02:56:26;5.32;;;3.10;;
80313;SDS011;69628;47.516;18.828;2023-06-10T02:57:26;4.95;;;2.42;;
80313;SDS011;69628;47.516;18.828;2023-06-10T02:58:27;3.92;;;2.75;;
80313;SDS011;69628;47.516;18.828;2023-06-10T02:59:27;3.35;;;2.53;;
80313;SDS011;69628;47.516;18.828;2023-06-10T03:00:28;6.35;;;2.75;;
80313;SDS011;69628;47.516;18.828;2023-06-10T03:01:29;5.63;;;2.22;;
80313;SDS011;69628;47.516;18.828;2023-06-10T03:02:31;3.58;;;2.38;;
80313;SDS011;69628;47.516;18.828;2023-06-10T03:03:31;10.60;;;2.38;;
80313;SDS011;69628;47.516;18.828;2023-06-10T03:04:33;3.90;;;2.40;;
80313;SDS011;69628;47.516;18.828;2023-06-10T03:05:34;3.70;;;2.33;;
80313;SDS011;69628;47.516;18.828;2023-06-10T03:06:34;5.43;;;2.40;;
80313;SDS011;69628;47.516;18.828;2023-06-10T03:07:35;4.63;;;2.60;;
80313;SDS011;69628;47.516;18.828;2023-06-10T03:08:36;3.45;;;2.65;;
80313;SDS011;69628;47.516;18.828;2023-06-10T03:09:37;4.93;;;2.90;;
80313;SDS011;69628;47.516;18.828;2023-06-10T03:10:38;5.53;;;2.65;;
80313;SDS011;69628;47.516;18.828;2023-06-10T03:11:38;4.00;;;2.60;;
80313;SDS011;69628;47.516;18.828;2023-06-10T03:12:39;5.22;;;2.88;;
80313;SDS011;69628;47.516;18.828;2023-06-10T03:13:39;8.93;;;2.47;;
80313;SDS011;69628;47.516;18.828;2023-06-10T03:14:40;3.75;;;2.70;;
80313;SDS011;69628;47.516;18.828;2023-06-10T03:15:44;4.68;;;2.60;;
80313;SDS011;69628;47.516;18.828;2023-06-10T03:16:46;4.25;;;2.42;;
80313;SDS011;69628;47.516;18.828;2023-06-10T03:17:46;4.22;;;2.70;;
80313;SDS011;69628;47.516;18.828;2023-06-10T03:18:46;3.25;;;2.40;;
80313;SDS011;69628;47.516;18.828;2023-06-10T03:19:47;10.45;;;2.58;;
80313;SDS011;69628;47.516;18.828;2023-06-10T03:20:47;3.20;;;2.08;;
80313;SDS011;69628;47.516;18.828;2023-06-10T03:21:49;4.22;;;2.50;;
80313;SDS011;69628;47.516;18.828;2023-06-10T03:22:50;9.40;;;2.88;;
80313;SDS011;69628;47.516;18.828;2023-06-10T03:23:51;3.45;;;2.50;;
80313;SDS011;69628;47.516;18.828;2023-06-10T03:24:51;4.45;;;2.78;;
80313;SDS011;69628;47.516;18.828;2023-06-10T03:25:53;3.97;;;2.72;;
80313;SDS011;69628;47.516;18.828;2023-06-10T03:26:54;4.97;;;2.97;;
80313;SDS011;69628;47.516;18.828;2023-06-10T03:27:55;4.30;;;2.63;;
80313;SDS011;69628;47.516;18.828;2023-06-10T03:28:55;2.88;;;2.25;;
80313;SDS011;69628;47.516;18.828;2023-06-10T03:29:56;4.68;;;2.92;;
80313;SDS011;69628;47.516;18.828;2023-06-10T03:30:56;3.80;;;2.72;;
80313;SDS011;69628;47.516;18.828;2023-06-10T03:31:57;4.72;;;2.40;;
80313;SDS011;69628;47.516;18.828;2023-06-10T03:32:57;4.32;;;2.65;;
80313;SDS011;69628;47.516;18.828;2023-06-10T03:33:57;3.60;;;2.75;;
80313;SDS011;69628;47.516;18.828;2023-06-10T03:34:58;6.68;;;2.58;;
80313;SDS011;69628;47.516;18.828;2023-06-10T03:35:58;3.97;;;2.83;;
80313;SDS011;69628;47.516;18.828;2023-06-10T03:36:59;4.10;;;2.85;;
80313;SDS011;69628;47.516;18.828;2023-06-10T03:37:59;4.05;;;2.67;;
80313;SDS011;69628;47.516;18.828;2023-06-10T03:39:00;4.72;;;2.65;;
80313;SDS011;69628;47.516;18.828;2023-06-10T03:40:00;3.60;;;2.78;;
80313;SDS011;69628;47.516;18.828;2023-06-10T03:41:01;3.63;;;2.55;;
80313;SDS011;69628;47.516;18.828;2023-06-10T03:42:01;5.05;;;2.83;;
80313;SDS011;69628;47.516;18.828;2023-06-10T03:43:02;3.55;;;2.70;;
80313;SDS011;69628;47.516;18.828;2023-06-10T03:44:02;6.80;;;3.40;;
80313;SDS011;69628;47.516;18.828;2023-06-10T03:45:04;5.32;;;3.00;;
80313;SDS011;69628;47.516;18.828;2023-06-10T03:46:05;3.85;;;2.70;;
80313;SDS011;69628;47.516;18.828;2023-06-10T03:47:06;3.83;;;2.70;;
80313;SDS011;69628;47.516;18.828;2023-06-10T03:48:06;4.28;;;2.78;;
80313;SDS011;69628;47.516;18.828;2023-06-10T03:49:08;3.95;;;2.85;;
80313;SDS011;69628;47.516;18.828;2023-06-10T03:50:09;7.85;;;3.03;;
80313;SDS011;69628;47.516;18.828;2023-06-10T03:51:10;5.18;;;3.15;;
80313;SDS011;69628;47.516;18.828;2023-06-10T03:52:10;8.48;;;3.50;;
80313;SDS011;69628;47.516;18.828;2023-06-10T03:53:10;6.72;;;3.45;;
80313;SDS011;69628;47.516;18.828;2023-06-10T03:54:11;4.25;;;3.05;;
80313;SDS011;69628;47.516;18.828;2023-06-10T03:55:11;7.85;;;3.55;;
80313;SDS011;69628;47.516;18.828;2023-06-10T03:56:13;8.57;;;3.58;;
80313;SDS011;69628;47.516;18.828;2023-06-10T03:57:13;8.75;;;3.72;;
80313;SDS011;69628;47.516;18.828;2023-06-10T03:58:14;6.22;;;3.65;;
80313;SDS011;69628;47.516;18.828;2023-06-10T03:59:15;7.03;;;3.83;;
80313;SDS011;69628;47.516;18.828;2023-06-10T04:00:15;5.38;;;3.25;;
80313;SDS011;69628;47.516;18.828;2023-06-10T04:01:17;5.75;;;3.70;;
80313;SDS011;69628;47.516;18.828;2023-06-10T04:02:21;5.63;;;4.20;;
80313;SDS011;69628;47.516;18.828;2023-06-10T04:03:21;5.95;;;4.13;;
80313;SDS011;69628;47.516;18.828;2023-06-10T04:04:23;6.05;;;3.72;;
80313;SDS011;69628;47.516;18.828;2023-06-10T04:05:23;6.25;;;3.97;;
80313;SDS011;69628;47.516;18.828;2023-06-10T04:06:23;5.03;;;3.40;;
80313;SDS011;69628;47.516;18.828;2023-06-10T04:07:25;6.05;;;3.78;;
80313;SDS011;69628;47.516;18.828;2023-06-10T04:08:26;8.23;;;3.92;;
80313;SDS011;69628;47.516;18.828;2023-06-10T04:09:26;6.20;;;3.90;;
80313;SDS011;69628;47.516;18.828;2023-06-10T04:10:27;5.20;;;3.53;;
80313;SDS011;69628;47.516;18.828;2023-06-10T04:11:27;7.18;;;3.70;;
80313;SDS011;69628;47.516;18.828;2023-06-10T04:12:28;4.75;;;3.53;;
80313;SDS011;69628;47.516;18.828;2023-06-10T04:13:28;12.13;;;4.15;;
80313;SDS011;69628;47.516;18.828;2023-06-10T04:14:28;7.10;;;4.07;;
80313;SDS011;69628;47.516;18.828;2023-06-10T04:15:29;5.13;;;3.78;;
80313;SDS011;69628;47.516;18.828;2023-06-10T04:16:32;5.38;;;3.78;;
80313;SDS011;69628;47.516;18.828;2023-06-10T04:17:33;5.38;;;3.63;;
80313;SDS011;69628;47.516;18.828;2023-06-10T04:18:33;5.85;;;3.35;;
80313;SDS011;69628;47.516;18.828;2023-06-10T04:19:34;8.68;;;3.63;;
80313;SDS011;69628;47.516;18.828;2023-06-10T04:20:34;5.25;;;3.10;;
80313;SDS011;69628;47.516;18.828;2023-06-10T04:21:35;4.93;;;3.58;;
80313;SDS011;69628;47.516;18.828;2023-06-10T04:22:36;9.75;;;3.85;;
80313;SDS011;69628;47.516;18.828;2023-06-10T04:23:36;7.88;;;3.35;;
80313;SDS011;69628;47.516;18.828;2023-06-10T04:24:39;5.93;;;3.47;;
80313;SDS011;69628;47.516;18.828;2023-06-10T04:25:39;7.97;;;4.20;;
80313;SDS011;69628;47.516;18.828;2023-06-10T04:26:40;7.05;;;3.40;;
80313;SDS011;69628;47.516;18.828;2023-06-10T04:27:40;5.20;;;3.80;;
80313;SDS011;69628;47.516;18.828;2023-06-10T04:28:42;5.47;;;3.83;;
80313;SDS011;69628;47.516;18.828;2023-06-10T04:29:43;4.78;;;3.33;;
80313;SDS011;69628;47.516;18.828;2023-06-10T04:30:43;6.60;;;3.70;;
80313;SDS011;69628;47.516;18.828;2023-06-10T04:31:45;6.30;;;3.70;;
80313;SDS011;69628;47.516;18.828;2023-06-10T04:32:47;5.00;;;3.40;;
80313;SDS011;69628;47.516;18.828;2023-06-10T04:33:47;5.85;;;4.13;;
80313;SDS011;69628;47.516;18.828;2023-06-10T04:34:48;8.43;;;3.72;;
80313;SDS011;69628;47.516;18.828;2023-06-10T04:35:49;8.80;;;3.63;;
80313;SDS011;69628;47.516;18.828;2023-06-10T04:36:50;5.38;;;3.45;;
80313;SDS011;69628;47.516;18.828;2023-06-10T04:37:51;4.60;;;3.40;;
80313;SDS011;69628;47.516;18.828;2023-06-10T04:38:51;5.13;;;3.28;;
80313;SDS011;69628;47.516;18.828;2023-06-10T04:39:52;5.22;;;3.38;;
80313;SDS011;69628;47.516;18.828;2023-06-10T04:40:52;4.15;;;3.03;;
80313;SDS011;69628;47.516;18.828;2023-06-10T04:41:52;4.30;;;3.13;;
80313;SDS011;69628;47.516;18.828;2023-06-10T04:42:53;5.15;;;3.00;;
80313;SDS011;69628;47.516;18.828;2023-06-10T04:43:53;10.18;;;3.40;;
80313;SDS011;69628;47.516;18.828;2023-06-10T04:44:54;5.40;;;3.33;;
80313;SDS011;69628;47.516;18.828;2023-06-10T04:45:54;5.20;;;3.25;;
80313;SDS011;69628;47.516;18.828;2023-06-10T04:46:55;6.88;;;3.50;;
80313;SDS011;69628;47.516;18.828;2023-06-10T04:47:56;8.40;;;3.50;;
80313;SDS011;69628;47.516;18.828;2023-06-10T04:48:57;5.18;;;3.58;;
80313;SDS011;69628;47.516;18.828;2023-06-10T04:49:58;6.93;;;4.13;;
80313;SDS011;69628;47.516;18.828;2023-06-10T04:50:59;7.53;;;4.03;;
80313;SDS011;69628;47.516;18.828;2023-06-10T04:52:00;7.88;;;4.13;;
80313;SDS011;69628;47.516;18.828;2023-06-10T04:53:00;7.50;;;4.07;;
80313;SDS011;69628;47.516;18.828;2023-06-10T04:54:01;6.05;;;3.67;;
80313;SDS011;69628;47.516;18.828;2023-06-10T04:55:04;5.25;;;3.72;;
80313;SDS011;69628;47.516;18.828;2023-06-10T04:56:05;4.60;;;3.42;;
80313;SDS011;69628;47.516;18.828;2023-06-10T04:57:06;4.53;;;3.53;;
80313;SDS011;69628;47.516;18.828;2023-06-10T04:58:07;7.57;;;4.35;;
80313;SDS011;69628;47.516;18.828;2023-06-10T04:59:08;3.97;;;3.30;;
80313;SDS011;69628;47.516;18.828;2023-06-10T05:00:08;5.72;;;3.45;;
80313;SDS011;69628;47.516;18.828;2023-06-10T05:01:09;4.63;;;3.45;;
80313;SDS011;69628;47.516;18.828;2023-06-10T05:02:10;5.35;;;3.40;;
80313;SDS011;69628;47.516;18.828;2023-06-10T05:03:10;7.65;;;3.25;;
80313;SDS011;69628;47.516;18.828;2023-06-10T05:04:10;4.63;;;3.17;;
80313;SDS011;69628;47.516;18.828;2023-06-10T05:05:11;5.10;;;3.45;;
80313;SDS011;69628;47.516;18.828;2023-06-10T05:06:11;4.20;;;3.20;;
80313;SDS011;69628;47.516;18.828;2023-06-10T05:07:11;4.22;;;3.30;;
80313;SDS011;69628;47.516;18.828;2023-06-10T05:08:12;4.82;;;3.35;;
80313;SDS011;69628;47.516;18.828;2023-06-10T05:09:12;7.50;;;3.60;;
80313;SDS011;69628;47.516;18.828;2023-06-10T05:10:13;4.70;;;3.10;;
80313;SDS011;69628;47.516;18.828;2023-06-10T05:11:13;5.75;;;3.70;;
80313;SDS011;69628;47.516;18.828;2023-06-10T05:12:13;8.23;;;3.75;;
80313;SDS011;69628;47.516;18.828;2023-06-10T05:13:15;6.60;;;4.38;;
80313;SDS011;69628;47.516;18.828;2023-06-10T05:14:16;4.82;;;3.60;;
80313;SDS011;69628;47.516;18.828;2023-06-10T05:15:19;5.18;;;3.63;;
80313;SDS011;69628;47.516;18.828;2023-06-10T05:16:19;7.72;;;3.97;;
80313;SDS011;69628;47.516;18.828;2023-06-10T05:17:20;8.55;;;4.18;;
80313;SDS011;69628;47.516;18.828;2023-06-10T05:18:20;5.47;;;3.80;;
80313;SDS011;69628;47.516;18.828;2023-06-10T05:19:21;8.15;;;4.18;;
80313;SDS011;69628;47.516;18.828;2023-06-10T05:20:21;5.85;;;4.35;;
80313;SDS011;69628;47.516;18.828;2023-06-10T05:21:22;6.85;;;4.25;;
80313;SDS011;69628;47.516;18.828;2023-06-10T05:22:22;5.60;;;3.97;;
80313;SDS011;69628;47.516;18.828;2023-06-10T05:23:24;6.07;;;4.22;;
80313;SDS011;69628;47.516;18.828;2023-06-10T05:24:25;5.63;;;4.13;;
80313;SDS011;69628;47.516;18.828;2023-06-10T05:25:25;4.90;;;3.63;;
80313;SDS011;69628;47.516;18.828;2023-06-10T05:26:27;7.70;;;4.53;;
80313;SDS011;69628;47.516;18.828;2023-06-10T05:27:28;6.00;;;3.97;;
80313;SDS011;69628;47.516;18.828;2023-06-10T05:28:29;6.57;;;3.85;;
80313;SDS011;69628;47.516;18.828;2023-06-10T05:29:29;7.03;;;3.78;;
80313;SDS011;69628;47.516;18.828;2023-06-10T05:30:29;5.20;;;3.90;;
80313;SDS011;69628;47.516;18.828;2023-06-10T05:31:30;6.72;;;3.97;;
80313;SDS011;69628;47.516;18.828;2023-06-10T05:32:30;7.03;;;4.55;;
80313;SDS011;69628;47.516;18.828;2023-06-10T05:33:31;18.08;;;4.47;;
80313;SDS011;69628;47.516;18.828;2023-06-10T05:34:31;6.38;;;4.25;;
80313;SDS011;69628;47.516;18.828;2023-06-10T05:35:32;8.57;;;4.05;;
80313;SDS011;69628;47.516;18.828;2023-06-10T05:36:32;6.75;;;4.40;;
80313;SDS011;69628;47.516;18.828;2023-06-10T05:37:33;6.22;;;4.10;;
80313;SDS011;69628;47.516;18.828;2023-06-10T05:38:35;7.60;;;4.30;;
80313;SDS011;69628;47.516;18.828;2023-06-10T05:39:35;6.43;;;3.95;;
80313;SDS011;69628;47.516;18.828;2023-06-10T05:40:39;6.93;;;4.00;;
80313;SDS011;69628;47.516;18.828;2023-06-10T05:41:40;8.32;;;4.20;;
80313;SDS011;69628;47.516;18.828;2023-06-10T05:42:40;9.95;;;4.50;;
80313;SDS011;69628;47.516;18.828;2023-06-10T05:43:40;6.45;;;4.57;;
80313;SDS011;69628;47.516;18.828;2023-06-10T05:44:41;6.93;;;4.40;;
80313;SDS011;69628;47.516;18.828;2023-06-10T05:45:41;7.55;;;4.07;;
80313;SDS011;69628;47.516;18.828;2023-06-10T05:46:41;5.22;;;3.65;;
80313;SDS011;69628;47.516;18.828;2023-06-10T05:47:42;5.03;;;3.60;;
80313;SDS011;69628;47.516;18.828;2023-06-10T05:48:42;7.00;;;4.15;;
80313;SDS011;69628;47.516;18.828;2023-06-10T05:49:43;5.90;;;3.53;;
80313;SDS011;69628;47.516;18.828;2023-06-10T05:50:45;3.90;;;3.00;;
80313;SDS011;69628;47.516;18.828;2023-06-10T05:51:48;4.53;;;2.53;;
80313;SDS011;69628;47.516;18.828;2023-06-10T05:52:48;4.50;;;2.58;;
80313;SDS011;69628;47.516;18.828;2023-06-10T05:53:49;2.70;;;2.10;;
80313;SDS011;69628;47.516;18.828;2023-06-10T05:54:50;3.72;;;2.42;;
80313;SDS011;69628;47.516;18.828;2023-06-10T05:55:50;2.90;;;2.35;;
80313;SDS011;69628;47.516;18.828;2023-06-10T05:56:52;3.47;;;2.28;;
80313;SDS011;69628;47.516;18.828;2023-06-10T05:57:59;3.45;;;2.22;;
80313;SDS011;69628;47.516;18.828;2023-06-10T05:59:02;4.78;;;2.22;;
80313;SDS011;69628;47.516;18.828;2023-06-10T06:00:02;4.57;;;2.40;;
80313;SDS011;69628;47.516;18.828;2023-06-10T06:01:03;2.55;;;1.90;;
80313;SDS011;69628;47.516;18.828;2023-06-10T06:02:04;4.47;;;2.10;;
80313;SDS011;69628;47.516;18.828;2023-06-10T06:03:08;2.70;;;2.20;;
80313;SDS011;69628;47.516;18.828;2023-06-10T06:04:09;3.30;;;2.22;;
80313;SDS011;69628;47.516;18.828;2023-06-10T06:05:09;2.67;;;2.13;;
80313;SDS011;69628;47.516;18.828;2023-06-10T06:06:10;2.30;;;1.73;;
80313;SDS011;69628;47.516;18.828;2023-06-10T06:07:10;2.70;;;2.10;;
80313;SDS011;69628;47.516;18.828;2023-06-10T06:08:10;3.17;;;2.10;;